sensor_id;sensor_type;location;lat;lon;timestamp;noise_LAeq;noise_LA_min;noise_LA_max;noise_LA01;noise_LA95
18377;Laerm;9315;52.624;13.544;2024-02-04T00:00:49;55.50;34.96;71.84;;
18377;Laerm;9315;52.624;13.544;2024-02-04T00:03:16;63.69;38.64;76.02;;
18377;Laerm;9315;52.624;13.544;2024-02-04T00:05:44;57.33;37.05;76.85;;
18377;Laerm;9315;52.624;13.544;2024-02-04T00:08:11;54.67;37.75;71.68;;
18377;Laerm;9315;52.624;13.544;2024-02-04T00:10:40;64.61;37.16;77.92;;
18377;Laerm;9315;52.624;13.544;2024-02-04T00:13:07;43.37;34.87;58.95;;
18377;Laerm;9315;52.624;13.544;2024-02-04T00:15:35;61.04;39.48;76.15;;
18377;Laerm;9315;52.624;13.544;2024-02-04T00:18:03;55.93;36.59;69.39;;
18377;Laerm;9315;52.624;13.544;2024-02-04T00:20:30;56.60;35.81;75.15;;
18377;Laerm;9315;52.624;13.544;2024-02-04T00:22:59;55.97;35.07;72.22;;
18377;Laerm;9315;52.624;13.544;2024-02-04T00:25:27;59.77;35.33;78.75;;
18377;Laerm;9315;52.624;13.544;2024-02-04T00:27:56;59.98;37.34;76.18;;
18377;Laerm;9315;52.624;13.544;2024-02-04T00:30:23;60.95;37.41;77.78;;
18377;Laerm;9315;52.624;13.544;2024-02-04T00:32:51;57.04;35.77;76.30;;
18377;Laerm;9315;52.624;13.544;2024-02-04T00:35:19;59.28;36.79;76.51;;
18377;Laerm;9315;52.624;13.544;2024-02-04T00:37:46;59.63;35.64;78.95;;
18377;Laerm;9315;52.624;13.544;2024-02-04T00:40:14;62.05;38.77;76.97;;
18377;Laerm;9315;52.624;13.544;2024-02-04T00:42:42;43.93;37.53;51.48;;
18377;Laerm;9315;52.624;13.544;2024-02-04T00:45:10;53.82;37.49;70.64;;
18377;Laerm;9315;52.624;13.544;2024-02-04T00:47:38;57.72;37.37;74.28;;
18377;Laerm;9315;52.624;13.544;2024-02-04T00:50:06;60.00;37.76;74.72;;
18377;Laerm;9315;52.624;13.544;2024-02-04T00:52:34;58.58;37.10;71.83;;
18377;Laerm;9315;52.624;13.544;2024-02-04T00:55:01;57.11;35.36;73.10;;
18377;Laerm;9315;52.624;13.544;2024-02-04T00:57:29;42.59;35.35;57.06;;
18377;Laerm;9315;52.624;13.544;2024-02-04T00:59:57;58.13;36.47;74.65;;
18377;Laerm;9315;52.624;13.544;2024-02-04T01:02:24;60.33;35.27;77.06;;
18377;Laerm;9315;52.624;13.544;2024-02-04T01:04:52;46.02;36.57;61.26;;
18377;Laerm;9315;52.624;13.544;2024-02-04T01:07:20;57.83;36.75;74.79;;
18377;Laerm;9315;52.624;13.544;2024-02-04T01:09:47;57.42;34.36;74.15;;
18377;Laerm;9315;52.624;13.544;2024-02-04T01:12:15;59.78;35.92;76.55;;
18377;Laerm;9315;52.624;13.544;2024-02-04T01:14:43;60.47;37.36;73.64;;
18377;Laerm;9315;52.624;13.544;2024-02-04T01:17:10;53.57;35.19;71.33;;
18377;Laerm;9315;52.624;13.544;2024-02-04T01:19:38;58.79;36.00;74.36;;
18377;Laerm;9315;52.624;13.544;2024-02-04T01:22:06;52.31;35.76;67.02;;
18377;Laerm;9315;52.624;13.544;2024-02-04T01:24:33;37.49;33.84;46.60;;
18377;Laerm;9315;52.624;13.544;2024-02-04T01:27:01;59.22;33.50;73.16;;
18377;Laerm;9315;52.624;13.544;2024-02-04T01:29:28;61.26;34.19;75.32;;
18377;Laerm;9315;52.624;13.544;2024-02-04T01:31:55;58.13;34.29;73.26;;
18377;Laerm;9315;52.624;13.544;2024-02-04T01:34:23;59.28;35.68;73.84;;
18377;Laerm;9315;52.624;13.544;2024-02-04T01:36:50;41.96;35.11;61.22;;
18377;Laerm;9315;52.624;13.544;2024-02-04T01:39:18;39.61;32.95;50.06;;
18377;Laerm;9315;52.624;13.544;2024-02-04T01:41:45;59.66;35.99;70.73;;
18377;Laerm;9315;52.624;13.544;2024-02-04T01:44:13;52.63;33.84;71.26;;
18377;Laerm;9315;52.624;13.544;2024-02-04T01:46:40;38.18;33.47;52.54;;
18377;Laerm;9315;52.624;13.544;2024-02-04T01:49:08;57.35;36.23;74.25;;
18377;Laerm;9315;52.624;13.544;2024-02-04T01:51:36;37.83;34.54;46.60;;
18377;Laerm;9315;52.624;13.544;2024-02-04T01:54:05;38.26;34.24;43.93;;
18377;Laerm;9315;52.624;13.544;2024-02-04T01:56:35;59.29;34.53;75.07;;
18377;Laerm;9315;52.624;13.544;2024-02-04T01:59:03;59.49;36.20;76.65;;
18377;Laerm;9315;52.624;13.544;2024-02-04T02:01:32;41.32;35.48;51.95;;
18377;Laerm;9315;52.624;13.544;2024-02-04T02:04:00;55.12;36.29;68.61;;
18377;Laerm;9315;52.624;13.544;2024-02-04T02:06:29;61.10;35.37;78.31;;
18377;Laerm;9315;52.624;13.544;2024-02-04T02:08:59;63.39;40.83;79.37;;
18377;Laerm;9315;52.624;13.544;2024-02-04T02:11:41;56.13;35.12;75.10;;
18377;Laerm;9315;52.624;13.544;2024-02-04T02:14:16;38.17;34.70;45.93;;
18377;Laerm;9315;52.624;13.544;2024-02-04T02:16:47;39.61;34.10;54.26;;
18377;Laerm;9315;52.624;13.544;2024-02-04T02:19:40;53.97;33.80;73.14;;
18377;Laerm;9315;52.624;13.544;2024-02-04T02:22:29;55.48;35.54;74.00;;
18377;Laerm;9315;52.624;13.544;2024-02-04T02:24:59;53.56;33.07;71.87;;
18377;Laerm;9315;52.624;13.544;2024-02-04T02:27:29;56.02;33.07;72.34;;
18377;Laerm;9315;52.624;13.544;2024-02-04T02:29:56;39.47;33.37;52.61;;
18377;Laerm;9315;52.624;13.544;2024-02-04T02:32:24;60.17;32.84;80.48;;
18377;Laerm;9315;52.624;13.544;2024-02-04T02:34:52;57.82;33.37;70.64;;
18377;Laerm;9315;52.624;13.544;2024-02-04T02:41:04;57.66;33.87;75.12;;
18377;Laerm;9315;52.624;13.544;2024-02-04T02:43:34;55.73;34.41;74.99;;
18377;Laerm;9315;52.624;13.544;2024-02-04T02:46:03;39.09;34.81;46.14;;
18377;Laerm;9315;52.624;13.544;2024-02-04T02:48:31;63.06;35.33;78.65;;
18377;Laerm;9315;52.624;13.544;2024-02-04T02:50:59;41.26;34.92;50.30;;
18377;Laerm;9315;52.624;13.544;2024-02-04T02:53:26;54.58;34.48;73.74;;
18377;Laerm;9315;52.624;13.544;2024-02-04T02:55:53;58.75;34.52;72.49;;
18377;Laerm;9315;52.624;13.544;2024-02-04T02:58:21;55.30;37.58;71.68;;
18377;Laerm;9315;52.624;13.544;2024-02-04T03:00:48;39.87;35.06;49.50;;
18377;Laerm;9315;52.624;13.544;2024-02-04T03:03:16;38.70;35.29;45.05;;
18377;Laerm;9315;52.624;13.544;2024-02-04T03:05:44;57.86;35.29;73.03;;
18377;Laerm;9315;52.624;13.544;2024-02-04T03:08:11;41.33;36.53;50.43;;
18377;Laerm;9315;52.624;13.544;2024-02-04T03:10:38;64.10;35.98;81.22;;
18377;Laerm;9315;52.624;13.544;2024-02-04T03:13:06;47.97;35.87;67.89;;
18377;Laerm;9315;52.624;13.544;2024-02-04T03:15:33;61.19;35.44;74.58;;
18377;Laerm;9315;52.624;13.544;2024-02-04T03:18:01;51.04;36.01;67.93;;
18377;Laerm;9315;52.624;13.544;2024-02-04T03:20:28;60.58;36.13;76.13;;
18377;Laerm;9315;52.624;13.544;2024-02-04T03:22:55;56.14;34.63;71.83;;
18377;Laerm;9315;52.624;13.544;2024-02-04T03:25:23;59.38;36.11;75.84;;
18377;Laerm;9315;52.624;13.544;2024-02-04T03:27:53;48.14;35.44;69.63;;
18377;Laerm;9315;52.624;13.544;2024-02-04T03:30:21;39.27;34.98;46.88;;
18377;Laerm;9315;52.624;13.544;2024-02-04T03:32:49;56.91;36.64;73.65;;
18377;Laerm;9315;52.624;13.544;2024-02-04T03:35:16;63.39;36.35;79.40;;
18377;Laerm;9315;52.624;13.544;2024-02-04T03:37:44;60.34;38.09;74.08;;
18377;Laerm;9315;52.624;13.544;2024-02-04T03:40:12;41.04;36.25;49.14;;
18377;Laerm;9315;52.624;13.544;2024-02-04T03:42:39;58.44;36.69;71.04;;
18377;Laerm;9315;52.624;13.544;2024-02-04T03:45:08;59.51;35.56;78.04;;
18377;Laerm;9315;52.624;13.544;2024-02-04T03:47:36;58.25;36.85;72.49;;
18377;Laerm;9315;52.624;13.544;2024-02-04T03:50:04;58.18;36.53;70.70;;
18377;Laerm;9315;52.624;13.544;2024-02-04T03:52:31;55.60;37.37;71.55;;
18377;Laerm;9315;52.624;13.544;2024-02-04T03:54:59;56.00;36.53;72.37;;
18377;Laerm;9315;52.624;13.544;2024-02-04T03:57:27;40.94;35.20;49.75;;
18377;Laerm;9315;52.624;13.544;2024-02-04T03:59:55;59.36;34.51;72.40;;
18377;Laerm;9315;52.624;13.544;2024-02-04T04:02:22;53.79;37.90;65.53;;
18377;Laerm;9315;52.624;13.544;2024-02-04T04:04:49;58.75;38.47;73.41;;
18377;Laerm;9315;52.624;13.544;2024-02-04T04:07:17;62.35;39.29;74.72;;
18377;Laerm;9315;52.624;13.544;2024-02-04T04:09:45;63.57;38.60;75.43;;
18377;Laerm;9315;52.624;13.544;2024-02-04T04:12:12;60.71;37.92;73.20;;
18377;Laerm;9315;52.624;13.544;2024-02-04T04:14:39;59.06;37.87;74.79;;
18377;Laerm;9315;52.624;13.544;2024-02-04T04:17:07;60.22;37.21;74.33;;
18377;Laerm;9315;52.624;13.544;2024-02-04T04:19:34;61.83;36.74;74.94;;
18377;Laerm;9315;52.624;13.544;2024-02-04T04:22:04;59.99;38.75;72.25;;
18377;Laerm;9315;52.624;13.544;2024-02-04T04:24:31;60.19;37.65;75.79;;
18377;Laerm;9315;52.624;13.544;2024-02-04T04:26:59;63.11;38.65;78.73;;
18377;Laerm;9315;52.624;13.544;2024-02-04T04:29:26;61.71;37.80;74.89;;
18377;Laerm;9315;52.624;13.544;2024-02-04T04:31:54;63.29;41.10;75.77;;
18377;Laerm;9315;52.624;13.544;2024-02-04T04:34:21;65.32;39.83;75.49;;
18377;Laerm;9315;52.624;13.544;2024-02-04T04:36:49;59.73;37.85;78.93;;
18377;Laerm;9315;52.624;13.544;2024-02-04T04:39:16;58.68;39.94;74.96;;
18377;Laerm;9315;52.624;13.544;2024-02-04T04:41:44;61.75;40.02;76.95;;
18377;Laerm;9315;52.624;13.544;2024-02-04T04:44:12;58.27;38.61;75.07;;
18377;Laerm;9315;52.624;13.544;2024-02-04T04:46:40;65.01;38.54;76.16;;
18377;Laerm;9315;52.624;13.544;2024-02-04T04:49:07;54.68;36.57;72.42;;
18377;Laerm;9315;52.624;13.544;2024-02-04T04:51:35;49.64;38.13;67.16;;
18377;Laerm;9315;52.624;13.544;2024-02-04T04:54:03;54.86;37.95;70.64;;
18377;Laerm;9315;52.624;13.544;2024-02-04T04:56:30;60.94;39.40;74.99;;
18377;Laerm;9315;52.624;13.544;2024-02-04T04:58:57;60.98;39.73;75.72;;
18377;Laerm;9315;52.624;13.544;2024-02-04T05:01:25;60.74;37.74;75.60;;
18377;Laerm;9315;52.624;13.544;2024-02-04T05:03:52;61.03;38.02;76.72;;
18377;Laerm;9315;52.624;13.544;2024-02-04T05:06:20;61.94;37.99;75.53;;
18377;Laerm;9315;52.624;13.544;2024-02-04T05:08:47;45.32;38.70;56.28;;
18377;Laerm;9315;52.624;13.544;2024-02-04T05:11:15;63.73;37.85;78.42;;
18377;Laerm;9315;52.624;13.544;2024-02-04T05:13:43;57.20;39.17;75.85;;
18377;Laerm;9315;52.624;13.544;2024-02-04T05:16:10;63.22;36.99;76.98;;
18377;Laerm;9315;52.624;13.544;2024-02-04T05:18:37;61.84;39.56;72.91;;
18377;Laerm;9315;52.624;13.544;2024-02-04T05:21:05;56.06;38.46;74.43;;
18377;Laerm;9315;52.624;13.544;2024-02-04T05:23:32;62.67;40.13;74.65;;
18377;Laerm;9315;52.624;13.544;2024-02-04T05:26:04;62.04;39.57;79.49;;
18377;Laerm;9315;52.624;13.544;2024-02-04T05:28:32;45.26;39.90;59.44;;
18377;Laerm;9315;52.624;13.544;2024-02-04T05:31:02;64.70;41.59;79.07;;
18377;Laerm;9315;52.624;13.544;2024-02-04T05:33:30;61.45;40.96;76.14;;
18377;Laerm;9315;52.624;13.544;2024-02-04T05:35:57;62.38;38.18;79.59;;
18377;Laerm;9315;52.624;13.544;2024-02-04T05:38:25;60.39;37.32;77.28;;
18377;Laerm;9315;52.624;13.544;2024-02-04T05:40:52;62.16;39.30;78.30;;
18377;Laerm;9315;52.624;13.544;2024-02-04T05:43:20;58.31;39.88;75.24;;
18377;Laerm;9315;52.624;13.544;2024-02-04T05:45:47;62.43;39.67;76.57;;
18377;Laerm;9315;52.624;13.544;2024-02-04T05:48:15;41.35;38.34;48.89;;
18377;Laerm;9315;52.624;13.544;2024-02-04T05:50:43;61.01;38.87;76.12;;
18377;Laerm;9315;52.624;13.544;2024-02-04T05:53:11;64.50;40.91;76.57;;
18377;Laerm;9315;52.624;13.544;2024-02-04T05:55:39;62.70;41.21;76.70;;
18377;Laerm;9315;52.624;13.544;2024-02-04T05:58:06;62.64;39.04;76.57;;
18377;Laerm;9315;52.624;13.544;2024-02-04T06:00:34;58.40;41.53;76.83;;
18377;Laerm;9315;52.624;13.544;2024-02-04T06:03:02;41.01;36.96;50.06;;
18377;Laerm;9315;52.624;13.544;2024-02-04T06:05:29;58.35;37.10;73.75;;
18377;Laerm;9315;52.624;13.544;2024-02-04T06:07:57;63.95;41.39;76.27;;
18377;Laerm;9315;52.624;13.544;2024-02-04T06:10:24;61.18;40.63;76.70;;
18377;Laerm;9315;52.624;13.544;2024-02-04T06:12:51;58.87;39.75;72.96;;
18377;Laerm;9315;52.624;13.544;2024-02-04T06:15:19;42.50;39.11;50.09;;
18377;Laerm;9315;52.624;13.544;2024-02-04T06:17:49;61.05;39.34;73.12;;
18377;Laerm;9315;52.624;13.544;2024-02-04T06:20:18;63.30;41.85;76.58;;
18377;Laerm;9315;52.624;13.544;2024-02-04T06:22:45;61.02;41.50;73.89;;
18377;Laerm;9315;52.624;13.544;2024-02-04T06:25:13;57.57;40.56;73.00;;
18377;Laerm;9315;52.624;13.544;2024-02-04T06:27:41;64.32;40.16;78.26;;
18377;Laerm;9315;52.624;13.544;2024-02-04T06:30:09;65.32;39.83;78.42;;
18377;Laerm;9315;52.624;13.544;2024-02-04T06:32:37;61.48;40.40;75.52;;
18377;Laerm;9315;52.624;13.544;2024-02-04T06:35:06;55.43;38.63;71.07;;
18377;Laerm;9315;52.624;13.544;2024-02-04T06:37:33;62.63;40.31;75.29;;
18377;Laerm;9315;52.624;13.544;2024-02-04T06:40:01;69.47;40.45;85.62;;
18377;Laerm;9315;52.624;13.544;2024-02-04T06:42:28;60.61;40.04;74.52;;
18377;Laerm;9315;52.624;13.544;2024-02-04T06:44:56;64.50;40.59;75.95;;
18377;Laerm;9315;52.624;13.544;2024-02-04T06:47:23;62.75;43.46;75.78;;
18377;Laerm;9315;52.624;13.544;2024-02-04T06:49:51;63.71;43.03;75.89;;
18377;Laerm;9315;52.624;13.544;2024-02-04T06:52:18;62.83;39.51;75.21;;
18377;Laerm;9315;52.624;13.544;2024-02-04T06:54:46;62.65;41.75;75.15;;
18377;Laerm;9315;52.624;13.544;2024-02-04T06:57:13;60.48;44.72;72.63;;
18377;Laerm;9315;52.624;13.544;2024-02-04T06:59:41;62.50;41.41;77.11;;
18377;Laerm;9315;52.624;13.544;2024-02-04T07:02:08;66.12;43.28;80.37;;
18377;Laerm;9315;52.624;13.544;2024-02-04T07:04:35;61.74;42.88;74.82;;
18377;Laerm;9315;52.624;13.544;2024-02-04T07:07:03;61.05;41.23;74.73;;
18377;Laerm;9315;52.624;13.544;2024-02-04T07:09:31;65.70;44.77;75.62;;
18377;Laerm;9315;52.624;13.544;2024-02-04T07:11:58;61.59;43.67;75.24;;
18377;Laerm;9315;52.624;13.544;2024-02-04T07:14:26;63.52;43.15;75.66;;
18377;Laerm;9315;52.624;13.544;2024-02-04T07:16:53;62.95;43.47;75.85;;
18377;Laerm;9315;52.624;13.544;2024-02-04T07:19:20;66.18;45.37;80.51;;
18377;Laerm;9315;52.624;13.544;2024-02-04T07:21:48;63.39;45.44;73.80;;
18377;Laerm;9315;52.624;13.544;2024-02-04T07:24:15;63.46;42.49;78.29;;
18377;Laerm;9315;52.624;13.544;2024-02-04T07:26:43;65.17;43.78;75.96;;
18377;Laerm;9315;52.624;13.544;2024-02-04T07:29:13;62.93;43.85;76.05;;
18377;Laerm;9315;52.624;13.544;2024-02-04T07:31:42;64.03;43.06;77.53;;
18377;Laerm;9315;52.624;13.544;2024-02-04T07:34:10;64.68;44.21;75.31;;
18377;Laerm;9315;52.624;13.544;2024-02-04T07:36:40;58.72;43.48;71.89;;
18377;Laerm;9315;52.624;13.544;2024-02-04T07:39:07;64.02;44.10;75.07;;
18377;Laerm;9315;52.624;13.544;2024-02-04T07:41:34;62.78;43.77;77.20;;
18377;Laerm;9315;52.624;13.544;2024-02-04T07:44:02;63.82;43.33;74.41;;
18377;Laerm;9315;52.624;13.544;2024-02-04T07:46:30;65.00;43.90;77.94;;
18377;Laerm;9315;52.624;13.544;2024-02-04T07:48:57;65.15;45.31;78.21;;
18377;Laerm;9315;52.624;13.544;2024-02-04T07:51:25;60.99;43.38;74.53;;
18377;Laerm;9315;52.624;13.544;2024-02-04T07:53:52;63.43;44.15;77.03;;
18377;Laerm;9315;52.624;13.544;2024-02-04T07:56:20;66.20;45.88;76.26;;
18377;Laerm;9315;52.624;13.544;2024-02-04T07:58:47;66.71;47.28;76.98;;
18377;Laerm;9315;52.624;13.544;2024-02-04T08:01:15;67.96;46.01;79.21;;
18377;Laerm;9315;52.624;13.544;2024-02-04T08:03:43;65.37;45.43;74.02;;
18377;Laerm;9315;52.624;13.544;2024-02-04T08:06:11;65.42;46.00;77.62;;
18377;Laerm;9315;52.624;13.544;2024-02-04T08:08:38;66.51;45.01;76.90;;
18377;Laerm;9315;52.624;13.544;2024-02-04T08:11:06;63.35;46.01;74.96;;
18377;Laerm;9315;52.624;13.544;2024-02-04T08:13:33;65.95;45.82;80.62;;
18377;Laerm;9315;52.624;13.544;2024-02-04T08:16:01;67.00;46.04;78.24;;
18377;Laerm;9315;52.624;13.544;2024-02-04T08:18:28;65.15;44.50;76.65;;
18377;Laerm;9315;52.624;13.544;2024-02-04T08:20:56;67.96;46.78;76.10;;
18377;Laerm;9315;52.624;13.544;2024-02-04T08:23:24;66.94;46.52;75.92;;
18377;Laerm;9315;52.624;13.544;2024-02-04T08:25:51;67.01;48.35;76.44;;
18377;Laerm;9315;52.624;13.544;2024-02-04T08:28:19;67.22;47.46;77.01;;
18377;Laerm;9315;52.624;13.544;2024-02-04T08:30:46;67.06;47.38;76.29;;
18377;Laerm;9315;52.624;13.544;2024-02-04T08:33:14;66.95;47.45;78.37;;
18377;Laerm;9315;52.624;13.544;2024-02-04T08:35:42;66.76;46.67;77.37;;
18377;Laerm;9315;52.624;13.544;2024-02-04T08:38:09;68.33;46.81;78.13;;
18377;Laerm;9315;52.624;13.544;2024-02-04T08:40:36;64.11;45.78;76.89;;
18377;Laerm;9315;52.624;13.544;2024-02-04T08:43:04;67.47;48.85;77.62;;
18377;Laerm;9315;52.624;13.544;2024-02-04T08:45:31;67.12;45.74;79.46;;
18377;Laerm;9315;52.624;13.544;2024-02-04T08:47:59;67.45;46.76;78.85;;
18377;Laerm;9315;52.624;13.544;2024-02-04T08:50:29;66.14;45.14;75.84;;
18377;Laerm;9315;52.624;13.544;2024-02-04T08:52:56;68.35;47.32;78.42;;
18377;Laerm;9315;52.624;13.544;2024-02-04T08:55:24;67.21;47.37;76.33;;
18377;Laerm;9315;52.624;13.544;2024-02-04T08:57:51;66.98;47.40;76.91;;
18377;Laerm;9315;52.624;13.544;2024-02-04T09:00:21;67.14;48.32;76.37;;
18377;Laerm;9315;52.624;13.544;2024-02-04T09:02:49;65.56;44.94;75.71;;
18377;Laerm;9315;52.624;13.544;2024-02-04T09:05:16;64.57;45.43;76.15;;
18377;Laerm;9315;52.624;13.544;2024-02-04T09:07:45;65.74;45.38;77.58;;
18377;Laerm;9315;52.624;13.544;2024-02-04T09:10:13;65.63;46.12;76.37;;
18377;Laerm;9315;52.624;13.544;2024-02-04T09:12:41;66.24;46.41;76.24;;
18377;Laerm;9315;52.624;13.544;2024-02-04T09:15:09;67.17;47.39;77.66;;
18377;Laerm;9315;52.624;13.544;2024-02-04T09:17:37;67.85;47.63;76.03;;
18377;Laerm;9315;52.624;13.544;2024-02-04T09:20:06;67.72;47.35;76.41;;
18377;Laerm;9315;52.624;13.544;2024-02-04T09:22:37;67.87;46.52;78.39;;
18377;Laerm;9315;52.624;13.544;2024-02-04T09:25:07;67.42;47.72;76.35;;
18377;Laerm;9315;52.624;13.544;2024-02-04T09:27:34;69.13;48.98;78.10;;
18377;Laerm;9315;52.624;13.544;2024-02-04T09:30:03;70.26;49.97;77.91;;
18377;Laerm;9315;52.624;13.544;2024-02-04T09:32:31;67.94;49.91;76.57;;
18377;Laerm;9315;52.624;13.544;2024-02-04T09:34:58;69.19;48.11;78.58;;
18377;Laerm;9315;52.624;13.544;2024-02-04T09:37:26;65.98;47.20;74.90;;
18377;Laerm;9315;52.624;13.544;2024-02-04T09:39:54;66.81;49.49;75.84;;
18377;Laerm;9315;52.624;13.544;2024-02-04T09:42:22;68.64;47.75;80.90;;
18377;Laerm;9315;52.624;13.544;2024-02-04T09:44:51;67.33;48.10;75.34;;
18377;Laerm;9315;52.624;13.544;2024-02-04T09:47:19;67.70;48.91;76.64;;
18377;Laerm;9315;52.624;13.544;2024-02-04T09:49:50;68.78;48.82;77.97;;
18377;Laerm;9315;52.624;13.544;2024-02-04T09:52:27;66.65;48.34;76.48;;
18377;Laerm;9315;52.624;13.544;2024-02-04T09:55:01;66.28;48.83;75.02;;
18377;Laerm;9315;52.624;13.544;2024-02-04T09:57:29;65.30;45.73;74.99;;
18377;Laerm;9315;52.624;13.544;2024-02-04T10:00:03;64.63;47.46;78.03;;
18377;Laerm;9315;52.624;13.544;2024-02-04T10:02:32;66.70;48.97;77.43;;
18377;Laerm;9315;52.624;13.544;2024-02-04T10:05:00;66.55;47.24;76.01;;
18377;Laerm;9315;52.624;13.544;2024-02-04T10:07:28;65.50;47.85;77.94;;
18377;Laerm;9315;52.624;13.544;2024-02-04T10:09:57;66.61;47.16;79.26;;
18377;Laerm;9315;52.624;13.544;2024-02-04T10:12:24;68.10;48.96;77.81;;
18377;Laerm;9315;52.624;13.544;2024-02-04T10:14:52;69.07;48.19;80.95;;
18377;Laerm;9315;52.624;13.544;2024-02-04T10:17:20;67.72;50.47;77.82;;
18377;Laerm;9315;52.624;13.544;2024-02-04T10:19:48;69.66;49.93;76.65;;
18377;Laerm;9315;52.624;13.544;2024-02-04T10:22:16;67.71;48.12;76.87;;
18377;Laerm;9315;52.624;13.544;2024-02-04T10:24:44;68.41;49.62;76.00;;
18377;Laerm;9315;52.624;13.544;2024-02-04T10:27:15;67.74;48.54;75.34;;
18377;Laerm;9315;52.624;13.544;2024-02-04T10:29:55;66.28;48.58;77.38;;
18377;Laerm;9315;52.624;13.544;2024-02-04T10:32:23;67.78;50.17;77.49;;
18377;Laerm;9315;52.624;13.544;2024-02-04T10:34:52;68.88;50.96;77.39;;
18377;Laerm;9315;52.624;13.544;2024-02-04T10:37:20;67.71;49.64;77.43;;
18377;Laerm;9315;52.624;13.544;2024-02-04T10:39:47;68.64;49.06;83.14;;
18377;Laerm;9315;52.624;13.544;2024-02-04T10:42:15;69.09;50.37;78.11;;
18377;Laerm;9315;52.624;13.544;2024-02-04T10:44:45;70.06;51.70;78.21;;
18377;Laerm;9315;52.624;13.544;2024-02-04T10:47:17;68.83;48.79;76.09;;
18377;Laerm;9315;52.624;13.544;2024-02-04T10:49:52;69.43;48.18;78.45;;
18377;Laerm;9315;52.624;13.544;2024-02-04T10:52:22;68.81;49.83;79.67;;
18377;Laerm;9315;52.624;13.544;2024-02-04T10:54:51;69.75;49.52;88.15;;
18377;Laerm;9315;52.624;13.544;2024-02-04T10:57:22;68.23;52.22;77.04;;
18377;Laerm;9315;52.624;13.544;2024-02-04T10:59:52;67.23;48.75;75.78;;
18377;Laerm;9315;52.624;13.544;2024-02-04T11:02:20;68.75;50.65;76.94;;
18377;Laerm;9315;52.624;13.544;2024-02-04T11:04:49;66.80;51.75;76.64;;
18377;Laerm;9315;52.624;13.544;2024-02-04T11:07:18;66.66;48.15;75.06;;
18377;Laerm;9315;52.624;13.544;2024-02-04T11:09:48;69.25;50.25;76.92;;
18377;Laerm;9315;52.624;13.544;2024-02-04T11:12:19;69.73;51.79;77.02;;
18377;Laerm;9315;52.624;13.544;2024-02-04T11:14:54;68.56;50.23;75.90;;
18377;Laerm;9315;52.624;13.544;2024-02-04T11:18:14;69.54;49.89;77.99;;
18377;Laerm;9315;52.624;13.544;2024-02-04T11:26:44;69.61;51.35;80.72;;
18377;Laerm;9315;52.624;13.544;2024-02-04T11:29:12;70.14;52.90;76.98;;
18377;Laerm;9315;52.624;13.544;2024-02-04T11:31:41;69.31;50.34;77.86;;
18377;Laerm;9315;52.624;13.544;2024-02-04T11:34:08;67.19;48.15;75.15;;
18377;Laerm;9315;52.624;13.544;2024-02-04T11:36:40;67.01;50.74;75.44;;
18377;Laerm;9315;52.624;13.544;2024-02-04T11:39:18;67.58;48.44;75.46;;
18377;Laerm;9315;52.624;13.544;2024-02-04T11:41:51;68.07;51.11;78.69;;
18377;Laerm;9315;52.624;13.544;2024-02-04T11:44:26;69.80;49.80;78.39;;
18377;Laerm;9315;52.624;13.544;2024-02-04T11:46:55;66.21;49.25;76.62;;
18377;Laerm;9315;52.624;13.544;2024-02-04T11:49:25;67.07;49.15;75.49;;
18377;Laerm;9315;52.624;13.544;2024-02-04T11:51:54;68.18;50.10;75.87;;
18377;Laerm;9315;52.624;13.544;2024-02-04T11:54:22;68.64;50.04;76.89;;
18377;Laerm;9315;52.624;13.544;2024-02-04T11:56:53;68.96;52.41;75.53;;
18377;Laerm;9315;52.624;13.544;2024-02-04T11:59:23;67.01;49.21;75.71;;
18377;Laerm;9315;52.624;13.544;2024-02-04T12:01:55;67.81;50.01;75.38;;
18377;Laerm;9315;52.624;13.544;2024-02-04T12:04:24;68.87;49.32;76.54;;
18377;Laerm;9315;52.624;13.544;2024-02-04T12:06:56;68.01;49.71;76.12;;
18377;Laerm;9315;52.624;13.544;2024-02-04T12:09:24;67.90;49.90;78.15;;
18377;Laerm;9315;52.624;13.544;2024-02-04T12:11:55;67.85;48.94;76.81;;
18377;Laerm;9315;52.624;13.544;2024-02-04T12:14:23;66.97;50.56;75.32;;
18377;Laerm;9315;52.624;13.544;2024-02-04T12:16:50;68.62;51.29;76.61;;
18377;Laerm;9315;52.624;13.544;2024-02-04T12:19:19;68.53;52.45;76.51;;
18377;Laerm;9315;52.624;13.544;2024-02-04T12:21:46;68.56;51.98;76.83;;
18377;Laerm;9315;52.624;13.544;2024-02-04T12:24:14;67.39;50.00;76.33;;
18377;Laerm;9315;52.624;13.544;2024-02-04T12:26:42;67.54;49.82;77.34;;
18377;Laerm;9315;52.624;13.544;2024-02-04T12:29:12;69.36;52.43;78.75;;
18377;Laerm;9315;52.624;13.544;2024-02-04T12:31:41;68.58;54.08;75.57;;
18377;Laerm;9315;52.624;13.544;2024-02-04T12:34:09;68.68;51.69;79.54;;
18377;Laerm;9315;52.624;13.544;2024-02-04T12:36:36;67.30;50.14;76.26;;
18377;Laerm;9315;52.624;13.544;2024-02-04T12:39:04;67.53;50.25;76.94;;
18377;Laerm;9315;52.624;13.544;2024-02-04T12:41:34;66.96;49.04;78.85;;
18377;Laerm;9315;52.624;13.544;2024-02-04T12:44:02;68.32;50.33;78.19;;
18377;Laerm;9315;52.624;13.544;2024-02-04T12:46:32;67.16;48.69;76.51;;
18377;Laerm;9315;52.624;13.544;2024-02-04T12:49:00;68.79;51.13;80.17;;
18377;Laerm;9315;52.624;13.544;2024-02-04T12:51:33;68.19;52.54;79.90;;
18377;Laerm;9315;52.624;13.544;2024-02-04T12:54:12;66.90;51.35;77.64;;
18377;Laerm;9315;52.624;13.544;2024-02-04T12:59:09;68.18;50.30;75.89;;
18377;Laerm;9315;52.624;13.544;2024-02-04T13:01:40;68.88;52.04;75.44;;
18377;Laerm;9315;52.624;13.544;2024-02-04T13:04:08;66.77;50.49;75.70;;
18377;Laerm;9315;52.624;13.544;2024-02-04T13:06:38;68.00;48.59;77.41;;
18377;Laerm;9315;52.624;13.544;2024-02-04T13:09:08;67.87;51.74;76.09;;
18377;Laerm;9315;52.624;13.544;2024-02-04T13:11:36;68.96;55.54;77.06;;
18377;Laerm;9315;52.624;13.544;2024-02-04T13:14:05;69.10;51.58;76.96;;
18377;Laerm;9315;52.624;13.544;2024-02-04T13:16:32;70.36;49.64;83.04;;
18377;Laerm;9315;52.624;13.544;2024-02-04T13:19:00;66.72;50.38;77.40;;
18377;Laerm;9315;52.624;13.544;2024-02-04T13:21:28;70.24;51.76;78.60;;
18377;Laerm;9315;52.624;13.544;2024-02-04T13:23:56;68.29;49.02;79.92;;
18377;Laerm;9315;52.624;13.544;2024-02-04T13:26:24;69.25;52.59;79.38;;
18377;Laerm;9315;52.624;13.544;2024-02-04T13:28:51;68.01;50.80;75.88;;
18377;Laerm;9315;52.624;13.544;2024-02-04T13:31:19;68.91;48.85;75.97;;
18377;Laerm;9315;52.624;13.544;2024-02-04T13:33:46;68.07;49.22;75.58;;
18377;Laerm;9315;52.624;13.544;2024-02-04T13:36:14;68.18;50.30;75.83;;
18377;Laerm;9315;52.624;13.544;2024-02-04T13:38:41;68.57;49.48;77.73;;
18377;Laerm;9315;52.624;13.544;2024-02-04T13:41:12;67.55;51.06;76.00;;
18377;Laerm;9315;52.624;13.544;2024-02-04T13:43:40;69.53;52.25;76.65;;
18377;Laerm;9315;52.624;13.544;2024-02-04T13:46:07;68.98;48.53;77.33;;
18377;Laerm;9315;52.624;13.544;2024-02-04T13:48:35;68.38;48.97;77.11;;
18377;Laerm;9315;52.624;13.544;2024-02-04T13:51:03;67.19;48.88;75.48;;
18377;Laerm;9315;52.624;13.544;2024-02-04T13:53:30;69.25;52.16;78.78;;
18377;Laerm;9315;52.624;13.544;2024-02-04T13:56:01;67.54;50.66;78.51;;
18377;Laerm;9315;52.624;13.544;2024-02-04T13:58:29;68.42;49.61;76.40;;
18377;Laerm;9315;52.624;13.544;2024-02-04T14:00:56;67.13;48.33;77.50;;
18377;Laerm;9315;52.624;13.544;2024-02-04T14:03:25;68.97;49.51;77.89;;